Carrabassett Regional Airport (B21)
Carrabassett, ME
Field Elevation: 874
Lat: 45°05.12N  Long: 70°12.98W
CTAF/Unicom Freq: 122.8000
   
    
Weather Advisories
2019-03-24   07:35 Z
Altimeter 29.80" Hg
Wind 050° @ 7 KT
Gusts 15 KT
Visibility 9 SM
Temperature -2° C (28° F)
Dewpoint -14° C (7° F)
Relative Humidity 39%
Density Altitude --
Condensation Altitude 7,000 feet
Wind Chill: -6° C (21° F)
Wind and Runways
Indicated Runway = 35
Headwind = 4 kt
Crosswind = 6 kt
History
 
 
 
More Info
NOAA Forecast
 
 
About Us
Belfort Instrument
 
 
FAA Disclaimer: The data displayed is for advisory purposes only and is not to be used for flight planning or operations. For official data, please call (not available) to hear the current automated AWOS voice message.
  METAR B21 240735Z AUTO 05007G15KT 9 SM M02/M14 A2980